sensor_id;sensor_type;location;lat;lon;timestamp;P1;durP1;ratioP1;P2;durP2;ratioP2
48241;SDS011;34041;51.812;4.622;2023-05-07T00:02:13;16.30;;;14.73;;
48241;SDS011;34041;51.812;4.622;2023-05-07T00:05:14;17.50;;;15.73;;
48241;SDS011;34041;51.812;4.622;2023-05-07T00:08:14;18.38;;;16.60;;
48241;SDS011;34041;51.812;4.622;2023-05-07T00:11:15;17.63;;;15.77;;
48241;SDS011;34041;51.812;4.622;2023-05-07T00:14:15;16.63;;;14.53;;
48241;SDS011;34041;51.812;4.622;2023-05-07T00:17:15;17.67;;;16.03;;
48241;SDS011;34041;51.812;4.622;2023-05-07T00:20:15;17.17;;;15.67;;
48241;SDS011;34041;51.812;4.622;2023-05-07T00:23:15;16.70;;;15.20;;
48241;SDS011;34041;51.812;4.622;2023-05-07T00:26:16;18.17;;;16.40;;
48241;SDS011;34041;51.812;4.622;2023-05-07T00:29:16;18.53;;;16.73;;
48241;SDS011;34041;51.812;4.622;2023-05-07T00:32:16;16.80;;;15.20;;
48241;SDS011;34041;51.812;4.622;2023-05-07T00:35:16;18.77;;;16.77;;
48241;SDS011;34041;51.812;4.622;2023-05-07T00:38:17;17.60;;;16.00;;
48241;SDS011;34041;51.812;4.622;2023-05-07T00:41:17;16.93;;;15.23;;
48241;SDS011;34041;51.812;4.622;2023-05-07T00:44:17;17.52;;;15.73;;
48241;SDS011;34041;51.812;4.622;2023-05-07T00:47:18;16.50;;;15.00;;
48241;SDS011;34041;51.812;4.622;2023-05-07T00:50:18;16.80;;;15.03;;
48241;SDS011;34041;51.812;4.622;2023-05-07T00:53:19;15.10;;;13.60;;
48241;SDS011;34041;51.812;4.622;2023-05-07T00:56:22;16.38;;;14.75;;
48241;SDS011;34041;51.812;4.622;2023-05-07T00:59:23;16.30;;;14.82;;
48241;SDS011;34041;51.812;4.622;2023-05-07T01:02:23;15.00;;;13.50;;
48241;SDS011;34041;51.812;4.622;2023-05-07T01:05:23;15.57;;;14.00;;
48241;SDS011;34041;51.812;4.622;2023-05-07T01:08:24;15.63;;;13.85;;
48241;SDS011;34041;51.812;4.622;2023-05-07T01:11:26;15.45;;;13.88;;
48241;SDS011;34041;51.812;4.622;2023-05-07T01:14:26;14.93;;;13.50;;
48241;SDS011;34041;51.812;4.622;2023-05-07T01:17:27;14.73;;;13.00;;
48241;SDS011;34041;51.812;4.622;2023-05-07T01:20:27;14.90;;;13.20;;
48241;SDS011;34041;51.812;4.622;2023-05-07T01:23:28;13.60;;;12.30;;
48241;SDS011;34041;51.812;4.622;2023-05-07T01:26:29;13.52;;;12.23;;
48241;SDS011;34041;51.812;4.622;2023-05-07T01:29:29;15.23;;;13.68;;
48241;SDS011;34041;51.812;4.622;2023-05-07T01:32:43;13.45;;;12.18;;
48241;SDS011;34041;51.812;4.622;2023-05-07T01:35:45;14.25;;;12.95;;
48241;SDS011;34041;51.812;4.622;2023-05-07T01:38:47;13.05;;;11.85;;
48241;SDS011;34041;51.812;4.622;2023-05-07T01:41:47;12.95;;;11.63;;
48241;SDS011;34041;51.812;4.622;2023-05-07T01:44:48;12.15;;;10.93;;
48241;SDS011;34041;51.812;4.622;2023-05-07T01:47:49;13.10;;;10.68;;
48241;SDS011;34041;51.812;4.622;2023-05-07T01:50:49;10.20;;;9.20;;
48241;SDS011;34041;51.812;4.622;2023-05-07T01:53:50;10.93;;;9.55;;
48241;SDS011;34041;51.812;4.622;2023-05-07T01:56:52;10.50;;;9.35;;
48241;SDS011;34041;51.812;4.622;2023-05-07T01:59:52;10.43;;;9.53;;
48241;SDS011;34041;51.812;4.622;2023-05-07T02:02:52;9.57;;;8.55;;
48241;SDS011;34041;51.812;4.622;2023-05-07T02:05:53;11.63;;;9.60;;
48241;SDS011;34041;51.812;4.622;2023-05-07T02:08:53;10.05;;;8.30;;
48241;SDS011;34041;51.812;4.622;2023-05-07T02:11:53;9.40;;;8.50;;
48241;SDS011;34041;51.812;4.622;2023-05-07T02:14:53;9.07;;;7.80;;
48241;SDS011;34041;51.812;4.622;2023-05-07T02:18:01;12.40;;;8.23;;
48241;SDS011;34041;51.812;4.622;2023-05-07T02:21:01;10.85;;;8.63;;
48241;SDS011;34041;51.812;4.622;2023-05-07T02:24:02;9.10;;;8.07;;
48241;SDS011;34041;51.812;4.622;2023-05-07T02:27:02;8.50;;;7.70;;
48241;SDS011;34041;51.812;4.622;2023-05-07T02:30:03;8.27;;;7.20;;
48241;SDS011;34041;51.812;4.622;2023-05-07T02:33:03;7.97;;;7.20;;
48241;SDS011;34041;51.812;4.622;2023-05-07T02:36:10;8.45;;;7.55;;
48241;SDS011;34041;51.812;4.622;2023-05-07T02:39:10;7.78;;;6.97;;
48241;SDS011;34041;51.812;4.622;2023-05-07T02:42:11;8.30;;;7.40;;
48241;SDS011;34041;51.812;4.622;2023-05-07T02:45:11;7.18;;;6.45;;
48241;SDS011;34041;51.812;4.622;2023-05-07T02:48:11;8.50;;;6.60;;
48241;SDS011;34041;51.812;4.622;2023-05-07T02:51:11;7.17;;;6.47;;
48241;SDS011;34041;51.812;4.622;2023-05-07T02:54:12;9.60;;;6.80;;
48241;SDS011;34041;51.812;4.622;2023-05-07T02:57:12;8.73;;;6.57;;
48241;SDS011;34041;51.812;4.622;2023-05-07T03:00:16;7.30;;;6.30;;
48241;SDS011;34041;51.812;4.622;2023-05-07T03:03:17;7.30;;;6.60;;
48241;SDS011;34041;51.812;4.622;2023-05-07T03:06:17;6.95;;;6.35;;
48241;SDS011;34041;51.812;4.622;2023-05-07T03:09:17;8.30;;;7.17;;
48241;SDS011;34041;51.812;4.622;2023-05-07T03:12:17;8.13;;;6.07;;
48241;SDS011;34041;51.812;4.622;2023-05-07T03:15:17;8.07;;;7.27;;
48241;SDS011;34041;51.812;4.622;2023-05-07T03:18:18;6.90;;;6.20;;
48241;SDS011;34041;51.812;4.622;2023-05-07T03:21:18;8.33;;;7.07;;
48241;SDS011;34041;51.812;4.622;2023-05-07T03:24:18;9.45;;;7.35;;
48241;SDS011;34041;51.812;4.622;2023-05-07T03:27:18;9.20;;;6.68;;
48241;SDS011;34041;51.812;4.622;2023-05-07T03:30:19;7.47;;;6.47;;
48241;SDS011;34041;51.812;4.622;2023-05-07T03:33:20;7.35;;;6.53;;
48241;SDS011;34041;51.812;4.622;2023-05-07T03:36:20;7.17;;;6.47;;
48241;SDS011;34041;51.812;4.622;2023-05-07T03:39:20;7.43;;;6.43;;
48241;SDS011;34041;51.812;4.622;2023-05-07T03:42:20;7.80;;;6.57;;
48241;SDS011;34041;51.812;4.622;2023-05-07T03:45:21;7.38;;;6.53;;
48241;SDS011;34041;51.812;4.622;2023-05-07T03:48:21;8.37;;;7.50;;
48241;SDS011;34041;51.812;4.622;2023-05-07T03:51:21;7.90;;;7.20;;
48241;SDS011;34041;51.812;4.622;2023-05-07T03:54:21;6.70;;;6.03;;
48241;SDS011;34041;51.812;4.622;2023-05-07T03:57:22;7.40;;;6.70;;
48241;SDS011;34041;51.812;4.622;2023-05-07T04:00:22;8.00;;;6.93;;
48241;SDS011;34041;51.812;4.622;2023-05-07T04:03:22;8.73;;;7.40;;
48241;SDS011;34041;51.812;4.622;2023-05-07T04:06:22;7.57;;;6.87;;
48241;SDS011;34041;51.812;4.622;2023-05-07T04:09:22;9.53;;;8.50;;
48241;SDS011;34041;51.812;4.622;2023-05-07T04:12:23;10.07;;;7.93;;
48241;SDS011;34041;51.812;4.622;2023-05-07T04:15:23;9.20;;;6.97;;
48241;SDS011;34041;51.812;4.622;2023-05-07T04:18:24;8.13;;;6.07;;
48241;SDS011;34041;51.812;4.622;2023-05-07T04:21:24;8.70;;;7.80;;
48241;SDS011;34041;51.812;4.622;2023-05-07T04:24:26;7.70;;;6.30;;
48241;SDS011;34041;51.812;4.622;2023-05-07T04:27:26;7.97;;;6.82;;
48241;SDS011;34041;51.812;4.622;2023-05-07T04:30:28;7.13;;;6.43;;
48241;SDS011;34041;51.812;4.622;2023-05-07T04:33:28;8.60;;;6.40;;
48241;SDS011;34041;51.812;4.622;2023-05-07T04:36:28;8.50;;;7.00;;
48241;SDS011;34041;51.812;4.622;2023-05-07T04:39:29;8.48;;;7.70;;
48241;SDS011;34041;51.812;4.622;2023-05-07T04:42:30;7.72;;;6.93;;
48241;SDS011;34041;51.812;4.622;2023-05-07T04:45:31;9.23;;;7.63;;
48241;SDS011;34041;51.812;4.622;2023-05-07T04:48:31;8.57;;;7.68;;
48241;SDS011;34041;51.812;4.622;2023-05-07T04:51:31;9.27;;;7.10;;
48241;SDS011;34041;51.812;4.622;2023-05-07T04:54:32;7.18;;;6.47;;
48241;SDS011;34041;51.812;4.622;2023-05-07T04:57:32;8.67;;;7.80;;
48241;SDS011;34041;51.812;4.622;2023-05-07T05:00:33;8.73;;;6.90;;
48241;SDS011;34041;51.812;4.622;2023-05-07T05:03:33;8.10;;;7.30;;
48241;SDS011;34041;51.812;4.622;2023-05-07T05:06:33;9.53;;;7.97;;
48241;SDS011;34041;51.812;4.622;2023-05-07T05:09:34;8.57;;;7.47;;
48241;SDS011;34041;51.812;4.622;2023-05-07T05:12:34;9.27;;;8.00;;
48241;SDS011;34041;51.812;4.622;2023-05-07T05:15:34;8.67;;;7.73;;
48241;SDS011;34041;51.812;4.622;2023-05-07T05:18:35;8.73;;;7.82;;
48241;SDS011;34041;51.812;4.622;2023-05-07T05:21:35;8.88;;;7.57;;
48241;SDS011;34041;51.812;4.622;2023-05-07T05:24:35;9.73;;;7.82;;
48241;SDS011;34041;51.812;4.622;2023-05-07T05:27:35;8.98;;;8.02;;
48241;SDS011;34041;51.812;4.622;2023-05-07T05:30:36;9.50;;;8.52;;
48241;SDS011;34041;51.812;4.622;2023-05-07T05:33:36;10.70;;;7.97;;
48241;SDS011;34041;51.812;4.622;2023-05-07T05:36:36;8.77;;;7.37;;
48241;SDS011;34041;51.812;4.622;2023-05-07T05:39:36;8.70;;;7.80;;
48241;SDS011;34041;51.812;4.622;2023-05-07T05:42:37;10.57;;;8.37;;
48241;SDS011;34041;51.812;4.622;2023-05-07T05:45:37;9.52;;;8.52;;
48241;SDS011;34041;51.812;4.622;2023-05-07T05:48:37;10.70;;;8.17;;
48241;SDS011;34041;51.812;4.622;2023-05-07T05:51:37;9.23;;;8.23;;
48241;SDS011;34041;51.812;4.622;2023-05-07T05:54:38;10.02;;;9.05;;
48241;SDS011;34041;51.812;4.622;2023-05-07T05:57:38;9.03;;;8.13;;
48241;SDS011;34041;51.812;4.622;2023-05-07T06:00:38;8.52;;;7.63;;
48241;SDS011;34041;51.812;4.622;2023-05-07T06:03:39;9.63;;;7.90;;
48241;SDS011;34041;51.812;4.622;2023-05-07T06:06:39;9.53;;;8.53;;
48241;SDS011;34041;51.812;4.622;2023-05-07T06:09:39;9.73;;;8.83;;
48241;SDS011;34041;51.812;4.622;2023-05-07T06:12:39;10.73;;;8.20;;
48241;SDS011;34041;51.812;4.622;2023-05-07T06:15:40;10.57;;;9.52;;
48241;SDS011;34041;51.812;4.622;2023-05-07T06:18:40;9.60;;;8.57;;
48241;SDS011;34041;51.812;4.622;2023-05-07T06:21:40;9.50;;;8.60;;
48241;SDS011;34041;51.812;4.622;2023-05-07T06:24:40;9.47;;;8.57;;
48241;SDS011;34041;51.812;4.622;2023-05-07T06:27:41;10.43;;;9.40;;
48241;SDS011;34041;51.812;4.622;2023-05-07T06:30:41;11.67;;;9.87;;
48241;SDS011;34041;51.812;4.622;2023-05-07T06:33:41;9.70;;;8.70;;
48241;SDS011;34041;51.812;4.622;2023-05-07T06:36:42;10.18;;;9.18;;
48241;SDS011;34041;51.812;4.622;2023-05-07T06:39:42;11.32;;;10.23;;
48241;SDS011;34041;51.812;4.622;2023-05-07T06:42:42;12.50;;;8.53;;
48241;SDS011;34041;51.812;4.622;2023-05-07T06:45:43;12.10;;;10.47;;
48241;SDS011;34041;51.812;4.622;2023-05-07T06:48:43;11.23;;;10.03;;
48241;SDS011;34041;51.812;4.622;2023-05-07T06:51:43;10.50;;;9.47;;
48241;SDS011;34041;51.812;4.622;2023-05-07T06:54:43;11.97;;;10.67;;
48241;SDS011;34041;51.812;4.622;2023-05-07T06:57:44;11.15;;;9.90;;
48241;SDS011;34041;51.812;4.622;2023-05-07T07:00:44;10.75;;;9.75;;
48241;SDS011;34041;51.812;4.622;2023-05-07T07:03:45;11.82;;;10.38;;
48241;SDS011;34041;51.812;4.622;2023-05-07T07:06:46;11.90;;;10.60;;
48241;SDS011;34041;51.812;4.622;2023-05-07T07:09:46;11.05;;;9.95;;
48241;SDS011;34041;51.812;4.622;2023-05-07T07:12:46;12.30;;;10.70;;
48241;SDS011;34041;51.812;4.622;2023-05-07T07:15:47;11.85;;;10.65;;
48241;SDS011;34041;51.812;4.622;2023-05-07T07:18:47;12.75;;;9.98;;
48241;SDS011;34041;51.812;4.622;2023-05-07T07:21:47;11.73;;;10.60;;
48241;SDS011;34041;51.812;4.622;2023-05-07T07:24:48;13.45;;;10.95;;
48241;SDS011;34041;51.812;4.622;2023-05-07T07:27:48;11.87;;;10.63;;
48241;SDS011;34041;51.812;4.622;2023-05-07T07:30:48;13.38;;;11.98;;
48241;SDS011;34041;51.812;4.622;2023-05-07T07:33:49;20.58;;;13.88;;
48241;SDS011;34041;51.812;4.622;2023-05-07T07:36:50;24.08;;;13.52;;
48241;SDS011;34041;51.812;4.622;2023-05-07T07:39:50;16.23;;;13.90;;
48241;SDS011;34041;51.812;4.622;2023-05-07T07:42:50;16.03;;;12.80;;
48241;SDS011;34041;51.812;4.622;2023-05-07T07:45:51;15.23;;;13.57;;
48241;SDS011;34041;51.812;4.622;2023-05-07T07:48:51;14.33;;;12.83;;
48241;SDS011;34041;51.812;4.622;2023-05-07T07:51:51;15.60;;;14.00;;
48241;SDS011;34041;51.812;4.622;2023-05-07T07:54:51;14.97;;;13.40;;
48241;SDS011;34041;51.812;4.622;2023-05-07T07:57:52;17.70;;;15.10;;
48241;SDS011;34041;51.812;4.622;2023-05-07T08:00:52;15.93;;;14.43;;
48241;SDS011;34041;51.812;4.622;2023-05-07T08:03:52;15.10;;;13.70;;
48241;SDS011;34041;51.812;4.622;2023-05-07T08:06:52;14.80;;;13.40;;
48241;SDS011;34041;51.812;4.622;2023-05-07T08:09:54;18.17;;;15.10;;
48241;SDS011;34041;51.812;4.622;2023-05-07T08:12:54;15.57;;;14.07;;
48241;SDS011;34041;51.812;4.622;2023-05-07T08:15:54;14.98;;;13.48;;
48241;SDS011;34041;51.812;4.622;2023-05-07T08:18:55;16.10;;;14.53;;
48241;SDS011;34041;51.812;4.622;2023-05-07T08:21:55;15.93;;;14.40;;
48241;SDS011;34041;51.812;4.622;2023-05-07T08:24:55;17.48;;;14.95;;
48241;SDS011;34041;51.812;4.622;2023-05-07T08:27:55;15.57;;;13.97;;
48241;SDS011;34041;51.812;4.622;2023-05-07T08:30:56;16.37;;;14.67;;
48241;SDS011;34041;51.812;4.622;2023-05-07T08:37:01;15.93;;;14.55;;
48241;SDS011;34041;51.812;4.622;2023-05-07T08:40:01;15.90;;;14.40;;
48241;SDS011;34041;51.812;4.622;2023-05-07T08:43:01;15.40;;;13.90;;
48241;SDS011;34041;51.812;4.622;2023-05-07T08:46:02;17.00;;;15.40;;
48241;SDS011;34041;51.812;4.622;2023-05-07T08:49:02;16.95;;;15.25;;
48241;SDS011;34041;51.812;4.622;2023-05-07T08:52:02;15.95;;;14.55;;
48241;SDS011;34041;51.812;4.622;2023-05-07T08:55:03;15.05;;;13.65;;
48241;SDS011;34041;51.812;4.622;2023-05-07T08:58:03;16.77;;;15.27;;
48241;SDS011;34041;51.812;4.622;2023-05-07T09:01:07;17.05;;;14.82;;
48241;SDS011;34041;51.812;4.622;2023-05-07T09:04:07;14.73;;;13.40;;
48241;SDS011;34041;51.812;4.622;2023-05-07T09:07:08;15.00;;;13.50;;
48241;SDS011;34041;51.812;4.622;2023-05-07T09:10:08;14.93;;;13.40;;
48241;SDS011;34041;51.812;4.622;2023-05-07T09:13:08;15.07;;;13.57;;
48241;SDS011;34041;51.812;4.622;2023-05-07T09:16:11;15.07;;;13.75;;
48241;SDS011;34041;51.812;4.622;2023-05-07T09:19:12;17.52;;;15.90;;
48241;SDS011;34041;51.812;4.622;2023-05-07T09:22:12;13.90;;;12.27;;
48241;SDS011;34041;51.812;4.622;2023-05-07T09:25:12;14.77;;;13.38;;
48241;SDS011;34041;51.812;4.622;2023-05-07T09:28:13;13.05;;;11.75;;
48241;SDS011;34041;51.812;4.622;2023-05-07T09:31:13;15.03;;;13.30;;
48241;SDS011;34041;51.812;4.622;2023-05-07T09:34:13;13.93;;;12.55;;
48241;SDS011;34041;51.812;4.622;2023-05-07T09:37:13;13.38;;;12.23;;
48241;SDS011;34041;51.812;4.622;2023-05-07T09:40:21;13.43;;;12.13;;
48241;SDS011;34041;51.812;4.622;2023-05-07T09:43:22;13.35;;;11.95;;
48241;SDS011;34041;51.812;4.622;2023-05-07T09:46:25;12.35;;;11.13;;
48241;SDS011;34041;51.812;4.622;2023-05-07T09:49:29;13.18;;;11.88;;
48241;SDS011;34041;51.812;4.622;2023-05-07T09:55:33;12.48;;;11.27;;
48241;SDS011;34041;51.812;4.622;2023-05-07T09:58:33;13.05;;;10.85;;
48241;SDS011;34041;51.812;4.622;2023-05-07T10:01:36;12.68;;;11.48;;
48241;SDS011;34041;51.812;4.622;2023-05-07T10:04:37;11.18;;;10.13;;
48241;SDS011;34041;51.812;4.622;2023-05-07T10:07:37;11.90;;;10.80;;
48241;SDS011;34041;51.812;4.622;2023-05-07T10:10:37;12.10;;;10.93;;
48241;SDS011;34041;51.812;4.622;2023-05-07T10:13:37;11.43;;;10.32;;
48241;SDS011;34041;51.812;4.622;2023-05-07T10:16:38;10.87;;;9.83;;
48241;SDS011;34041;51.812;4.622;2023-05-07T10:19:38;11.05;;;9.93;;
48241;SDS011;34041;51.812;4.622;2023-05-07T10:22:40;10.98;;;9.93;;
48241;SDS011;34041;51.812;4.622;2023-05-07T10:25:42;11.00;;;9.53;;
48241;SDS011;34041;51.812;4.622;2023-05-07T10:28:43;12.90;;;10.05;;
48241;SDS011;34041;51.812;4.622;2023-05-07T10:31:48;11.48;;;9.10;;
48241;SDS011;34041;51.812;4.622;2023-05-07T10:34:50;10.90;;;8.75;;
48241;SDS011;34041;51.812;4.622;2023-05-07T10:37:53;11.00;;;8.45;;
48241;SDS011;34041;51.812;4.622;2023-05-07T10:40:53;10.77;;;9.60;;
48241;SDS011;34041;51.812;4.622;2023-05-07T10:43:54;9.98;;;8.90;;
48241;SDS011;34041;51.812;4.622;2023-05-07T10:47:07;9.43;;;8.35;;
48241;SDS011;34041;51.812;4.622;2023-05-07T11:06:08;10.30;;;9.20;;
48241;SDS011;34041;51.812;4.622;2023-05-07T11:09:08;12.00;;;9.57;;
48241;SDS011;34041;51.812;4.622;2023-05-07T11:12:08;13.40;;;8.70;;
48241;SDS011;34041;51.812;4.622;2023-05-07T11:15:12;11.30;;;9.37;;
48241;SDS011;34041;51.812;4.622;2023-05-07T11:18:16;9.57;;;8.27;;
48241;SDS011;34041;51.812;4.622;2023-05-07T11:21:39;8.82;;;8.00;;
48241;SDS011;34041;51.812;4.622;2023-05-07T11:24:39;12.35;;;8.38;;
48241;SDS011;34041;51.812;4.622;2023-05-07T11:27:39;10.57;;;8.15;;
48241;SDS011;34041;51.812;4.622;2023-05-07T11:30:42;8.63;;;7.70;;
48241;SDS011;34041;51.812;4.622;2023-05-07T11:33:43;9.00;;;8.10;;
48241;SDS011;34041;51.812;4.622;2023-05-07T11:36:43;10.18;;;7.90;;
48241;SDS011;34041;51.812;4.622;2023-05-07T11:39:46;9.05;;;7.80;;
48241;SDS011;34041;51.812;4.622;2023-05-07T11:42:47;9.98;;;8.75;;
48241;SDS011;34041;51.812;4.622;2023-05-07T11:45:47;9.50;;;8.13;;
48241;SDS011;34041;51.812;4.622;2023-05-07T11:48:47;11.25;;;8.05;;
48241;SDS011;34041;51.812;4.622;2023-05-07T11:51:47;8.00;;;7.20;;
48241;SDS011;34041;51.812;4.622;2023-05-07T11:54:48;8.50;;;7.70;;
48241;SDS011;34041;51.812;4.622;2023-05-07T11:57:49;10.15;;;7.90;;
48241;SDS011;34041;51.812;4.622;2023-05-07T12:00:52;9.43;;;8.17;;
48241;SDS011;34041;51.812;4.622;2023-05-07T12:03:53;11.27;;;8.73;;
48241;SDS011;34041;51.812;4.622;2023-05-07T12:06:53;9.87;;;9.03;;
48241;SDS011;34041;51.812;4.622;2023-05-07T12:09:54;10.65;;;8.57;;
48241;SDS011;34041;51.812;4.622;2023-05-07T12:12:54;11.02;;;9.93;;
48241;SDS011;34041;51.812;4.622;2023-05-07T12:15:55;11.90;;;10.65;;
48241;SDS011;34041;51.812;4.622;2023-05-07T12:18:55;12.77;;;10.30;;
48241;SDS011;34041;51.812;4.622;2023-05-07T12:21:56;11.18;;;9.85;;
48241;SDS011;34041;51.812;4.622;2023-05-07T12:24:57;10.15;;;8.93;;
48241;SDS011;34041;51.812;4.622;2023-05-07T12:27:57;12.65;;;9.20;;
48241;SDS011;34041;51.812;4.622;2023-05-07T12:31:00;13.73;;;10.27;;
48241;SDS011;34041;51.812;4.622;2023-05-07T12:34:02;10.73;;;9.68;;
48241;SDS011;34041;51.812;4.622;2023-05-07T12:37:02;13.00;;;10.07;;
48241;SDS011;34041;51.812;4.622;2023-05-07T12:40:07;11.68;;;9.93;;
48241;SDS011;34041;51.812;4.622;2023-05-07T12:43:08;11.27;;;10.27;;
48241;SDS011;34041;51.812;4.622;2023-05-07T12:46:08;11.45;;;10.27;;
48241;SDS011;34041;51.812;4.622;2023-05-07T12:49:09;13.48;;;10.82;;
48241;SDS011;34041;51.812;4.622;2023-05-07T12:52:09;11.05;;;9.95;;
48241;SDS011;34041;51.812;4.622;2023-05-07T12:55:12;11.63;;;10.63;;
48241;SDS011;34041;51.812;4.622;2023-05-07T12:58:48;13.15;;;10.30;;
48241;SDS011;34041;51.812;4.622;2023-05-07T13:01:40;11.70;;;10.48;;
48241;SDS011;34041;51.812;4.622;2023-05-07T13:04:40;12.80;;;10.33;;
48241;SDS011;34041;51.812;4.622;2023-05-07T13:07:40;12.23;;;10.73;;
48241;SDS011;34041;51.812;4.622;2023-05-07T13:10:41;13.43;;;11.90;;
48241;SDS011;34041;51.812;4.622;2023-05-07T13:13:41;13.63;;;11.53;;
48241;SDS011;34041;51.812;4.622;2023-05-07T13:16:41;11.65;;;10.45;;
48241;SDS011;34041;51.812;4.622;2023-05-07T13:19:41;13.90;;;12.00;;
48241;SDS011;34041;51.812;4.622;2023-05-07T13:22:42;13.57;;;12.20;;
48241;SDS011;34041;51.812;4.622;2023-05-07T13:25:42;14.38;;;12.98;;
48241;SDS011;34041;51.812;4.622;2023-05-07T13:28:42;13.40;;;11.75;;
48241;SDS011;34041;51.812;4.622;2023-05-07T13:31:43;14.10;;;12.73;;
48241;SDS011;34041;51.812;4.622;2023-05-07T13:34:44;16.75;;;12.63;;
48241;SDS011;34041;51.812;4.622;2023-05-07T13:37:44;16.25;;;13.02;;
48241;SDS011;34041;51.812;4.622;2023-05-07T13:40:44;15.55;;;13.43;;
48241;SDS011;34041;51.812;4.622;2023-05-07T13:43:45;17.83;;;13.40;;
48241;SDS011;34041;51.812;4.622;2023-05-07T13:46:45;17.40;;;12.85;;
48241;SDS011;34041;51.812;4.622;2023-05-07T13:49:45;16.52;;;14.02;;
48241;SDS011;34041;51.812;4.622;2023-05-07T13:52:45;15.73;;;13.50;;
48241;SDS011;34041;51.812;4.622;2023-05-07T13:55:50;21.25;;;15.98;;
48241;SDS011;34041;51.812;4.622;2023-05-07T13:58:50;20.00;;;15.40;;
48241;SDS011;34041;51.812;4.622;2023-05-07T14:01:50;15.73;;;14.13;;
48241;SDS011;34041;51.812;4.622;2023-05-07T14:04:51;15.68;;;14.07;;
48241;SDS011;34041;51.812;4.622;2023-05-07T14:07:51;17.87;;;14.80;;
48241;SDS011;34041;51.812;4.622;2023-05-07T14:10:51;17.33;;;15.57;;
48241;SDS011;34041;51.812;4.622;2023-05-07T14:13:51;18.40;;;14.60;;
48241;SDS011;34041;51.812;4.622;2023-05-07T14:16:52;21.13;;;17.27;;
48241;SDS011;34041;51.812;4.622;2023-05-07T14:19:52;17.05;;;15.45;;
48241;SDS011;34041;51.812;4.622;2023-05-07T14:22:56;20.48;;;15.52;;
48241;SDS011;34041;51.812;4.622;2023-05-07T14:25:56;17.97;;;16.13;;
48241;SDS011;34041;51.812;4.622;2023-05-07T14:28:57;19.38;;;16.77;;
48241;SDS011;34041;51.812;4.622;2023-05-07T14:31:58;18.50;;;16.67;;
48241;SDS011;34041;51.812;4.622;2023-05-07T14:34:58;17.47;;;15.67;;
48241;SDS011;34041;51.812;4.622;2023-05-07T14:37:58;17.97;;;16.07;;
48241;SDS011;34041;51.812;4.622;2023-05-07T14:40:59;19.60;;;17.60;;
48241;SDS011;34041;51.812;4.622;2023-05-07T14:43:59;20.48;;;17.20;;
48241;SDS011;34041;51.812;4.622;2023-05-07T14:46:59;19.60;;;15.85;;
48241;SDS011;34041;51.812;4.622;2023-05-07T14:49:59;17.93;;;16.07;;
48241;SDS011;34041;51.812;4.622;2023-05-07T14:53:00;18.63;;;16.73;;
48241;SDS011;34041;51.812;4.622;2023-05-07T14:56:01;17.10;;;15.50;;
48241;SDS011;34041;51.812;4.622;2023-05-07T14:59:02;19.63;;;16.70;;
48241;SDS011;34041;51.812;4.622;2023-05-07T15:02:02;19.17;;;16.50;;
48241;SDS011;34041;51.812;4.622;2023-05-07T15:05:02;22.25;;;18.60;;
48241;SDS011;34041;51.812;4.622;2023-05-07T15:08:03;18.75;;;16.88;;
48241;SDS011;34041;51.812;4.622;2023-05-07T15:11:04;17.10;;;15.40;;
48241;SDS011;34041;51.812;4.622;2023-05-07T15:14:04;20.02;;;16.65;;
48241;SDS011;34041;51.812;4.622;2023-05-07T15:17:04;19.13;;;17.05;;
48241;SDS011;34041;51.812;4.622;2023-05-07T15:20:05;18.98;;;17.00;;
48241;SDS011;34041;51.812;4.622;2023-05-07T15:23:06;21.30;;;16.83;;
48241;SDS011;34041;51.812;4.622;2023-05-07T15:26:09;20.17;;;18.08;;
48241;SDS011;34041;51.812;4.622;2023-05-07T15:29:09;18.60;;;16.90;;
48241;SDS011;34041;51.812;4.622;2023-05-07T15:32:10;20.25;;;17.83;;
48241;SDS011;34041;51.812;4.622;2023-05-07T15:35:11;18.20;;;16.45;;
48241;SDS011;34041;51.812;4.622;2023-05-07T15:38:11;17.85;;;16.05;;
48241;SDS011;34041;51.812;4.622;2023-05-07T15:41:12;20.30;;;17.52;;
48241;SDS011;34041;51.812;4.622;2023-05-07T15:44:13;18.85;;;16.85;;
48241;SDS011;34041;51.812;4.622;2023-05-07T15:47:13;18.73;;;16.53;;
48241;SDS011;34041;51.812;4.622;2023-05-07T15:50:14;18.92;;;16.95;;
48241;SDS011;34041;51.812;4.622;2023-05-07T15:53:14;20.75;;;17.10;;
48241;SDS011;34041;51.812;4.622;2023-05-07T15:56:14;19.50;;;15.38;;
48241;SDS011;34041;51.812;4.622;2023-05-07T15:59:15;17.67;;;15.83;;
48241;SDS011;34041;51.812;4.622;2023-05-07T16:02:15;17.10;;;15.40;;
48241;SDS011;34041;51.812;4.622;2023-05-07T16:05:16;18.13;;;16.23;;
48241;SDS011;34041;51.812;4.622;2023-05-07T16:08:16;19.02;;;15.48;;
48241;SDS011;34041;51.812;4.622;2023-05-07T16:11:17;17.45;;;15.80;;
48241;SDS011;34041;51.812;4.622;2023-05-07T16:14:17;17.30;;;15.50;;
48241;SDS011;34041;51.812;4.622;2023-05-07T16:17:17;18.10;;;16.00;;
48241;SDS011;34041;51.812;4.622;2023-05-07T16:20:17;19.83;;;16.90;;
48241;SDS011;34041;51.812;4.622;2023-05-07T16:23:19;18.83;;;16.92;;
48241;SDS011;34041;51.812;4.622;2023-05-07T16:26:19;18.77;;;16.88;;
48241;SDS011;34041;51.812;4.622;2023-05-07T16:29:20;23.88;;;18.83;;
48241;SDS011;34041;51.812;4.622;2023-05-07T16:32:22;18.17;;;15.50;;
48241;SDS011;34041;51.812;4.622;2023-05-07T16:35:22;23.80;;;18.67;;
48241;SDS011;34041;51.812;4.622;2023-05-07T16:38:22;21.53;;;18.13;;
48241;SDS011;34041;51.812;4.622;2023-05-07T16:41:22;23.55;;;17.55;;
48241;SDS011;34041;51.812;4.622;2023-05-07T16:44:23;21.83;;;17.58;;
48241;SDS011;34041;51.812;4.622;2023-05-07T16:47:23;23.80;;;16.73;;
48241;SDS011;34041;51.812;4.622;2023-05-07T16:50:23;20.93;;;17.97;;
48241;SDS011;34041;51.812;4.622;2023-05-07T16:53:23;23.08;;;17.80;;
48241;SDS011;34041;51.812;4.622;2023-05-07T16:56:24;18.73;;;16.37;;
48241;SDS011;34041;51.812;4.622;2023-05-07T16:59:25;20.77;;;18.75;;
48241;SDS011;34041;51.812;4.622;2023-05-07T17:02:25;20.58;;;18.15;;
48241;SDS011;34041;51.812;4.622;2023-05-07T17:05:25;18.33;;;16.30;;
48241;SDS011;34041;51.812;4.622;2023-05-07T17:08:26;19.10;;;16.58;;
48241;SDS011;34041;51.812;4.622;2023-05-07T17:11:26;24.15;;;18.58;;
48241;SDS011;34041;51.812;4.622;2023-05-07T17:14:30;20.20;;;18.08;;
48241;SDS011;34041;51.812;4.622;2023-05-07T17:17:30;20.93;;;18.10;;
48241;SDS011;34041;51.812;4.622;2023-05-07T17:20:37;21.08;;;18.67;;
48241;SDS011;34041;51.812;4.622;2023-05-07T17:23:38;22.88;;;18.85;;
48241;SDS011;34041;51.812;4.622;2023-05-07T17:26:39;21.30;;;19.13;;
48241;SDS011;34041;51.812;4.622;2023-05-07T17:29:41;20.75;;;18.77;;
48241;SDS011;34041;51.812;4.622;2023-05-07T17:32:42;21.33;;;18.83;;
48241;SDS011;34041;51.812;4.622;2023-05-07T17:35:42;21.57;;;17.33;;
48241;SDS011;34041;51.812;4.622;2023-05-07T17:38:42;19.80;;;17.47;;
48241;SDS011;34041;51.812;4.622;2023-05-07T17:41:42;23.03;;;20.03;;
48241;SDS011;34041;51.812;4.622;2023-05-07T17:44:42;21.38;;;19.15;;
48241;SDS011;34041;51.812;4.622;2023-05-07T17:47:43;22.07;;;19.93;;
48241;SDS011;34041;51.812;4.622;2023-05-07T17:50:43;24.40;;;21.83;;
48241;SDS011;34041;51.812;4.622;2023-05-07T17:53:43;25.25;;;21.00;;
48241;SDS011;34041;51.812;4.622;2023-05-07T17:56:43;21.83;;;19.63;;
48241;SDS011;34041;51.812;4.622;2023-05-07T17:59:44;24.75;;;20.33;;
48241;SDS011;34041;51.812;4.622;2023-05-07T18:02:44;23.63;;;21.35;;
48241;SDS011;34041;51.812;4.622;2023-05-07T18:05:45;24.02;;;19.58;;
48241;SDS011;34041;51.812;4.622;2023-05-07T18:08:45;23.90;;;20.60;;
48241;SDS011;34041;51.812;4.622;2023-05-07T18:11:45;21.80;;;19.63;;